sensor_id;sensor_type;location;lat;lon;timestamp;pressure;altitude;pressure_sealevel;temperature;humidity
62025;BME280;47978;49.118;12.146;2022-08-03T00:02:15;97569.84;;;18.38;73.23
62025;BME280;47978;49.118;12.146;2022-08-03T00:04:42;97564.88;;;18.32;73.39
62025;BME280;47978;49.118;12.146;2022-08-03T00:07:09;97567.81;;;18.23;73.98
62025;BME280;47978;49.118;12.146;2022-08-03T00:09:35;97564.00;;;18.15;74.04
62025;BME280;47978;49.118;12.146;2022-08-03T00:12:02;97565.16;;;18.14;73.97
62025;BME280;47978;49.118;12.146;2022-08-03T00:14:29;97563.09;;;18.11;74.40
62025;BME280;47978;49.118;12.146;2022-08-03T00:16:57;97559.00;;;18.09;74.39
62025;BME280;47978;49.118;12.146;2022-08-03T00:19:24;97565.50;;;18.13;74.66
62025;BME280;47978;49.118;12.146;2022-08-03T00:21:50;97564.13;;;18.19;74.61
62025;BME280;47978;49.118;12.146;2022-08-03T00:24:17;97560.75;;;18.13;74.48
62025;BME280;47978;49.118;12.146;2022-08-03T00:26:44;97560.28;;;18.11;74.75
62025;BME280;47978;49.118;12.146;2022-08-03T00:29:11;97561.00;;;18.08;74.90
62025;BME280;47978;49.118;12.146;2022-08-03T00:31:38;97559.00;;;18.09;74.93
62025;BME280;47978;49.118;12.146;2022-08-03T00:34:19;97549.81;;;18.08;75.36
62025;BME280;47978;49.118;12.146;2022-08-03T00:37:05;97555.50;;;18.12;75.18
62025;BME280;47978;49.118;12.146;2022-08-03T00:39:32;97541.41;;;18.08;75.45
62025;BME280;47978;49.118;12.146;2022-08-03T00:42:01;97545.41;;;17.95;75.92
62025;BME280;47978;49.118;12.146;2022-08-03T00:44:27;97545.41;;;17.95;76.13
62025;BME280;47978;49.118;12.146;2022-08-03T00:46:54;97546.34;;;17.99;75.88
62025;BME280;47978;49.118;12.146;2022-08-03T00:49:22;97549.84;;;17.96;75.93
62025;BME280;47978;49.118;12.146;2022-08-03T00:51:49;97547.84;;;17.96;76.13
62025;BME280;47978;49.118;12.146;2022-08-03T00:54:16;97549.47;;;17.97;75.95
62025;BME280;47978;49.118;12.146;2022-08-03T00:56:43;97542.69;;;17.98;75.67
62025;BME280;47978;49.118;12.146;2022-08-03T00:59:26;97551.00;;;17.95;75.92
62025;BME280;47978;49.118;12.146;2022-08-03T01:01:52;97546.81;;;17.89;76.11
62025;BME280;47978;49.118;12.146;2022-08-03T01:04:19;97548.44;;;17.90;76.09
62025;BME280;47978;49.118;12.146;2022-08-03T01:06:49;97551.72;;;17.80;76.77
62025;BME280;47978;49.118;12.146;2022-08-03T01:09:22;97552.66;;;17.59;78.18
62025;BME280;47978;49.118;12.146;2022-08-03T01:11:57;97553.69;;;17.54;78.03
62025;BME280;47978;49.118;12.146;2022-08-03T01:14:32;97548.94;;;17.43;78.82
62025;BME280;47978;49.118;12.146;2022-08-03T01:17:12;97558.59;;;17.33;79.20
62025;BME280;47978;49.118;12.146;2022-08-03T01:19:44;97552.41;;;17.15;80.25
62025;BME280;47978;49.118;12.146;2022-08-03T01:22:16;97553.59;;;17.26;79.42
62025;BME280;47978;49.118;12.146;2022-08-03T01:24:55;97551.97;;;17.25;79.41
62025;BME280;47978;49.118;12.146;2022-08-03T01:27:30;97549.28;;;17.17;79.89
62025;BME280;47978;49.118;12.146;2022-08-03T01:30:06;97554.88;;;17.17;80.11
62025;BME280;47978;49.118;12.146;2022-08-03T01:32:39;97554.06;;;17.16;79.67
62025;BME280;47978;49.118;12.146;2022-08-03T01:35:31;97559.72;;;17.07;80.00
62025;BME280;47978;49.118;12.146;2022-08-03T01:38:06;97554.94;;;16.96;80.37
62025;BME280;47978;49.118;12.146;2022-08-03T01:40:36;97558.88;;;16.82;81.59
62025;BME280;47978;49.118;12.146;2022-08-03T01:43:05;97549.09;;;16.76;81.11
62025;BME280;47978;49.118;12.146;2022-08-03T01:45:35;97549.22;;;16.80;81.13
62025;BME280;47978;49.118;12.146;2022-08-03T01:48:04;97555.31;;;16.73;81.81
62025;BME280;47978;49.118;12.146;2022-08-03T01:50:32;97555.13;;;16.78;81.26
62025;BME280;47978;49.118;12.146;2022-08-03T01:53:00;97564.69;;;16.77;80.86
62025;BME280;47978;49.118;12.146;2022-08-03T01:55:29;97561.25;;;16.72;80.96
62025;BME280;47978;49.118;12.146;2022-08-03T01:57:57;97563.66;;;16.61;81.52
62025;BME280;47978;49.118;12.146;2022-08-03T02:00:32;97558.44;;;16.59;81.43
62025;BME280;47978;49.118;12.146;2022-08-03T02:03:04;97562.16;;;16.63;81.09
62025;BME280;47978;49.118;12.146;2022-08-03T02:05:31;97560.16;;;16.52;81.40
62025;BME280;47978;49.118;12.146;2022-08-03T02:07:59;97554.59;;;16.64;81.07
62025;BME280;47978;49.118;12.146;2022-08-03T02:10:27;97550.44;;;16.70;80.44
62025;BME280;47978;49.118;12.146;2022-08-03T02:13:03;97556.84;;;16.71;80.58
62025;BME280;47978;49.118;12.146;2022-08-03T02:15:31;97552.19;;;16.75;80.40
62025;BME280;47978;49.118;12.146;2022-08-03T02:18:02;97553.31;;;16.82;79.62
62025;BME280;47978;49.118;12.146;2022-08-03T02:20:32;97550.63;;;16.86;79.47
62025;BME280;47978;49.118;12.146;2022-08-03T02:22:59;97548.63;;;16.86;79.15
62025;BME280;47978;49.118;12.146;2022-08-03T02:25:25;97544.56;;;16.84;79.51
62025;BME280;47978;49.118;12.146;2022-08-03T02:27:55;97548.75;;;16.78;79.56
62025;BME280;47978;49.118;12.146;2022-08-03T02:30:27;97546.34;;;16.68;79.95
62025;BME280;47978;49.118;12.146;2022-08-03T02:32:56;97550.44;;;16.70;79.80
62025;BME280;47978;49.118;12.146;2022-08-03T02:35:28;97550.31;;;16.67;80.10
62025;BME280;47978;49.118;12.146;2022-08-03T02:37:58;97546.91;;;16.61;80.01
62025;BME280;47978;49.118;12.146;2022-08-03T02:40:27;97550.38;;;16.46;80.88
62025;BME280;47978;49.118;12.146;2022-08-03T02:42:57;97542.94;;;16.50;80.64
62025;BME280;47978;49.118;12.146;2022-08-03T02:45:26;97536.81;;;16.56;80.25
62025;BME280;47978;49.118;12.146;2022-08-03T02:47:56;97545.84;;;16.53;80.18
62025;BME280;47978;49.118;12.146;2022-08-03T02:50:26;97549.06;;;16.43;80.97
62025;BME280;47978;49.118;12.146;2022-08-03T02:52:54;97556.28;;;16.44;80.87
62025;BME280;47978;49.118;12.146;2022-08-03T02:55:23;97546.06;;;16.48;80.26
62025;BME280;47978;49.118;12.146;2022-08-03T02:57:51;97550.00;;;16.47;80.37
62025;BME280;47978;49.118;12.146;2022-08-03T03:00:19;97555.47;;;16.44;80.40
62025;BME280;47978;49.118;12.146;2022-08-03T03:02:56;97555.56;;;16.35;80.79
62025;BME280;47978;49.118;12.146;2022-08-03T03:05:23;97549.50;;;16.33;80.79
62025;BME280;47978;49.118;12.146;2022-08-03T03:08:12;97552.28;;;16.33;80.80
62025;BME280;47978;49.118;12.146;2022-08-03T03:10:44;97548.34;;;16.34;80.53
62025;BME280;47978;49.118;12.146;2022-08-03T03:13:14;97548.13;;;16.39;80.25
62025;BME280;47978;49.118;12.146;2022-08-03T03:15:42;97557.53;;;16.34;80.72
62025;BME280;47978;49.118;12.146;2022-08-03T03:18:11;97552.34;;;16.24;80.64
62025;BME280;47978;49.118;12.146;2022-08-03T03:20:38;97558.38;;;16.14;81.31
62025;BME280;47978;49.118;12.146;2022-08-03T03:23:24;97554.50;;;16.06;81.56
62025;BME280;47978;49.118;12.146;2022-08-03T03:25:52;97558.97;;;15.99;82.14
62025;BME280;47978;49.118;12.146;2022-08-03T03:28:19;97552.09;;;15.96;82.02
62025;BME280;47978;49.118;12.146;2022-08-03T03:30:46;97565.44;;;15.90;82.44
62025;BME280;47978;49.118;12.146;2022-08-03T03:33:18;97560.63;;;16.00;81.97
62025;BME280;47978;49.118;12.146;2022-08-03T03:35:45;97566.19;;;16.00;81.82
62025;BME280;47978;49.118;12.146;2022-08-03T03:38:12;97560.81;;;15.94;82.14
62025;BME280;47978;49.118;12.146;2022-08-03T03:40:40;97564.91;;;15.97;81.83
62025;BME280;47978;49.118;12.146;2022-08-03T03:43:08;97568.75;;;16.05;81.59
62025;BME280;47978;49.118;12.146;2022-08-03T03:45:36;97565.38;;;15.99;81.86
62025;BME280;47978;49.118;12.146;2022-08-03T03:48:04;97565.22;;;15.95;81.95
62025;BME280;47978;49.118;12.146;2022-08-03T03:50:32;97565.09;;;15.92;82.08
62025;BME280;47978;49.118;12.146;2022-08-03T03:52:59;97574.16;;;15.89;82.03
62025;BME280;47978;49.118;12.146;2022-08-03T03:55:26;97569.31;;;15.77;82.47
62025;BME280;47978;49.118;12.146;2022-08-03T03:57:55;97568.75;;;15.84;82.43
62025;BME280;47978;49.118;12.146;2022-08-03T04:00:22;97570.75;;;15.83;82.17
62025;BME280;47978;49.118;12.146;2022-08-03T04:02:48;97569.94;;;15.83;82.23
62025;BME280;47978;49.118;12.146;2022-08-03T04:05:15;97576.66;;;15.82;82.21
62025;BME280;47978;49.118;12.146;2022-08-03T04:07:46;97585.25;;;15.68;83.09
62025;BME280;47978;49.118;12.146;2022-08-03T04:10:20;97585.16;;;15.56;83.32
62025;BME280;47978;49.118;12.146;2022-08-03T04:12:49;97584.47;;;15.59;83.97
62025;BME280;47978;49.118;12.146;2022-08-03T04:15:19;97591.22;;;15.58;83.68
62025;BME280;47978;49.118;12.146;2022-08-03T04:17:48;97585.16;;;15.56;84.27
62025;BME280;47978;49.118;12.146;2022-08-03T04:20:18;97580.56;;;15.51;84.00
62025;BME280;47978;49.118;12.146;2022-08-03T04:22:47;97590.03;;;15.59;84.13
62025;BME280;47978;49.118;12.146;2022-08-03T04:25:17;97583.66;;;15.58;84.14
62025;BME280;47978;49.118;12.146;2022-08-03T04:27:45;97585.44;;;15.63;84.31
62025;BME280;47978;49.118;12.146;2022-08-03T04:30:36;97589.53;;;15.65;83.72
62025;BME280;47978;49.118;12.146;2022-08-03T04:33:04;97593.56;;;15.77;83.26
62025;BME280;47978;49.118;12.146;2022-08-03T04:35:32;97590.50;;;15.69;83.50
62025;BME280;47978;49.118;12.146;2022-08-03T04:38:20;97587.88;;;15.64;84.09
62025;BME280;47978;49.118;12.146;2022-08-03T04:40:49;97590.19;;;15.62;84.34
62025;BME280;47978;49.118;12.146;2022-08-03T04:43:17;97592.16;;;15.62;84.65
62025;BME280;47978;49.118;12.146;2022-08-03T04:45:46;97585.28;;;15.59;84.59
62025;BME280;47978;49.118;12.146;2022-08-03T04:48:13;97598.22;;;15.64;84.71
62025;BME280;47978;49.118;12.146;2022-08-03T04:50:41;97604.28;;;15.66;84.60
62025;BME280;47978;49.118;12.146;2022-08-03T04:53:08;97608.81;;;15.79;84.21
62025;BME280;47978;49.118;12.146;2022-08-03T04:55:35;97604.09;;;16.01;83.50
62025;BME280;47978;49.118;12.146;2022-08-03T04:58:03;97611.97;;;15.99;84.11
62025;BME280;47978;49.118;12.146;2022-08-03T05:00:29;97608.81;;;15.79;84.91
62025;BME280;47978;49.118;12.146;2022-08-03T05:02:57;97605.31;;;15.91;84.54
62025;BME280;47978;49.118;12.146;2022-08-03T05:05:24;97612.22;;;15.85;85.30
62025;BME280;47978;49.118;12.146;2022-08-03T05:08:03;97617.06;;;15.96;84.80
62025;BME280;47978;49.118;12.146;2022-08-03T05:10:36;97622.44;;;16.02;84.85
62025;BME280;47978;49.118;12.146;2022-08-03T05:13:03;97617.28;;;16.12;84.54
62025;BME280;47978;49.118;12.146;2022-08-03T05:15:29;97608.09;;;16.12;84.81
62025;BME280;47978;49.118;12.146;2022-08-03T05:17:57;97618.66;;;16.27;84.46
62025;BME280;47978;49.118;12.146;2022-08-03T05:20:24;97615.72;;;16.45;83.66
62025;BME280;47978;49.118;12.146;2022-08-03T05:22:51;97612.75;;;16.62;83.01
62025;BME280;47978;49.118;12.146;2022-08-03T05:25:17;97610.81;;;16.96;81.92
62025;BME280;47978;49.118;12.146;2022-08-03T05:27:47;97611.56;;;17.29;80.78
62025;BME280;47978;49.118;12.146;2022-08-03T05:30:14;97611.03;;;17.36;80.56
62025;BME280;47978;49.118;12.146;2022-08-03T05:33:01;97606.34;;;18.14;77.68
62025;BME280;47978;49.118;12.146;2022-08-03T05:35:28;97611.94;;;18.14;77.30
62025;BME280;47978;49.118;12.146;2022-08-03T05:38:15;97612.63;;;18.23;76.21
62025;BME280;47978;49.118;12.146;2022-08-03T05:40:54;97608.47;;;18.45;75.43
62025;BME280;47978;49.118;12.146;2022-08-03T05:43:41;97611.97;;;18.82;75.18
62025;BME280;47978;49.118;12.146;2022-08-03T05:46:08;97607.94;;;19.12;73.63
62025;BME280;47978;49.118;12.146;2022-08-03T05:48:40;97611.25;;;19.45;71.96
62025;BME280;47978;49.118;12.146;2022-08-03T05:51:06;97608.78;;;19.60;72.41
62025;BME280;47978;49.118;12.146;2022-08-03T05:53:33;97606.56;;;19.81;72.05
62025;BME280;47978;49.118;12.146;2022-08-03T05:56:00;97607.81;;;19.84;72.45
62025;BME280;47978;49.118;12.146;2022-08-03T05:58:40;97604.22;;;19.67;71.66
62025;BME280;47978;49.118;12.146;2022-08-03T06:01:06;97603.63;;;19.77;71.44
62025;BME280;47978;49.118;12.146;2022-08-03T06:03:33;97606.75;;;20.08;70.34
62025;BME280;47978;49.118;12.146;2022-08-03T06:06:01;97607.84;;;20.38;69.53
62025;BME280;47978;49.118;12.146;2022-08-03T06:08:28;97603.16;;;20.81;67.31
62025;BME280;47978;49.118;12.146;2022-08-03T06:10:54;97606.31;;;20.99;66.77
62025;BME280;47978;49.118;12.146;2022-08-03T06:13:21;97609.34;;;20.91;67.39
62025;BME280;47978;49.118;12.146;2022-08-03T06:15:47;97616.84;;;21.25;65.55
62025;BME280;47978;49.118;12.146;2022-08-03T06:18:14;97603.81;;;21.17;64.74
62025;BME280;47978;49.118;12.146;2022-08-03T06:20:40;97605.06;;;21.62;64.12
62025;BME280;47978;49.118;12.146;2022-08-03T06:23:08;97607.56;;;21.94;63.18
62025;BME280;47978;49.118;12.146;2022-08-03T06:25:43;97606.72;;;22.43;61.22
62025;BME280;47978;49.118;12.146;2022-08-03T06:28:10;97597.88;;;22.44;61.88
62025;BME280;47978;49.118;12.146;2022-08-03T06:30:49;97599.41;;;23.02;59.32
62025;BME280;47978;49.118;12.146;2022-08-03T06:33:15;97612.50;;;23.21;59.53
62025;BME280;47978;49.118;12.146;2022-08-03T06:35:42;97606.19;;;23.76;57.88
62025;BME280;47978;49.118;12.146;2022-08-03T06:38:11;97610.88;;;24.09;57.70
62025;BME280;47978;49.118;12.146;2022-08-03T06:40:38;97607.38;;;24.30;56.98
62025;BME280;47978;49.118;12.146;2022-08-03T06:43:06;97606.00;;;24.02;57.69
62025;BME280;47978;49.118;12.146;2022-08-03T06:45:38;97602.03;;;24.84;54.90
62025;BME280;47978;49.118;12.146;2022-08-03T06:48:06;97604.13;;;25.08;55.13
62025;BME280;47978;49.118;12.146;2022-08-03T06:50:34;97602.94;;;25.13;55.72
62025;BME280;47978;49.118;12.146;2022-08-03T06:53:02;97607.47;;;25.35;54.76
62025;BME280;47978;49.118;12.146;2022-08-03T06:55:31;97602.63;;;25.75;52.92
62025;BME280;47978;49.118;12.146;2022-08-03T06:57:57;97601.41;;;25.55;53.05
62025;BME280;47978;49.118;12.146;2022-08-03T07:00:28;97603.50;;;25.83;52.38
62025;BME280;47978;49.118;12.146;2022-08-03T07:02:55;97609.41;;;26.75;50.74
62025;BME280;47978;49.118;12.146;2022-08-03T07:05:24;97614.09;;;27.24;48.46
62025;BME280;47978;49.118;12.146;2022-08-03T07:07:53;97606.66;;;26.53;49.44
62025;BME280;47978;49.118;12.146;2022-08-03T07:10:20;97607.47;;;26.39;50.68
62025;BME280;47978;49.118;12.146;2022-08-03T07:12:48;97607.84;;;26.59;49.02
62025;BME280;47978;49.118;12.146;2022-08-03T07:15:23;97605.81;;;26.63;49.02
62025;BME280;47978;49.118;12.146;2022-08-03T07:18:09;97601.72;;;26.79;49.12
62025;BME280;47978;49.118;12.146;2022-08-03T07:20:36;97603.81;;;26.42;49.98
62025;BME280;47978;49.118;12.146;2022-08-03T07:23:03;97599.38;;;26.34;51.68
62025;BME280;47978;49.118;12.146;2022-08-03T07:25:29;97593.66;;;26.63;49.89
62025;BME280;47978;49.118;12.146;2022-08-03T07:27:57;97598.50;;;26.73;49.90
62025;BME280;47978;49.118;12.146;2022-08-03T07:30:24;97600.94;;;26.67;50.02
62025;BME280;47978;49.118;12.146;2022-08-03T07:32:50;97600.56;;;26.55;50.53
62025;BME280;47978;49.118;12.146;2022-08-03T07:35:17;97600.47;;;26.80;49.87
62025;BME280;47978;49.118;12.146;2022-08-03T07:37:50;97597.66;;;26.80;49.45
62025;BME280;47978;49.118;12.146;2022-08-03T07:40:20;97611.38;;;26.92;49.59
62025;BME280;47978;49.118;12.146;2022-08-03T07:42:47;97600.13;;;26.71;49.90
62025;BME280;47978;49.118;12.146;2022-08-03T07:45:20;97594.31;;;26.99;49.05
62025;BME280;47978;49.118;12.146;2022-08-03T07:47:46;97597.94;;;27.03;47.58
62025;BME280;47978;49.118;12.146;2022-08-03T07:50:19;97597.47;;;27.12;47.09
62025;BME280;47978;49.118;12.146;2022-08-03T07:52:46;97597.09;;;27.17;48.22
62025;BME280;47978;49.118;12.146;2022-08-03T07:55:13;97592.31;;;26.96;48.41
62025;BME280;47978;49.118;12.146;2022-08-03T07:57:39;97591.94;;;26.87;49.00
62025;BME280;47978;49.118;12.146;2022-08-03T08:00:11;97602.50;;;26.83;48.53
62025;BME280;47978;49.118;12.146;2022-08-03T08:02:39;97596.41;;;26.81;48.85
62025;BME280;47978;49.118;12.146;2022-08-03T08:05:07;97595.16;;;26.96;48.38
62025;BME280;47978;49.118;12.146;2022-08-03T08:07:34;97596.72;;;27.04;47.98
62025;BME280;47978;49.118;12.146;2022-08-03T08:10:00;97593.44;;;27.17;48.17
62025;BME280;47978;49.118;12.146;2022-08-03T08:12:27;97591.47;;;27.69;46.49
62025;BME280;47978;49.118;12.146;2022-08-03T08:14:53;97585.94;;;27.48;47.88
62025;BME280;47978;49.118;12.146;2022-08-03T08:17:20;97584.06;;;27.83;45.63
62025;BME280;47978;49.118;12.146;2022-08-03T08:19:48;97594.97;;;27.91;45.43
62025;BME280;47978;49.118;12.146;2022-08-03T08:22:18;97594.06;;;28.01;44.74
62025;BME280;47978;49.118;12.146;2022-08-03T08:24:56;97589.19;;;27.46;46.24
62025;BME280;47978;49.118;12.146;2022-08-03T08:27:22;97593.75;;;27.92;44.96
62025;BME280;47978;49.118;12.146;2022-08-03T08:29:49;97589.78;;;27.79;45.12
62025;BME280;47978;49.118;12.146;2022-08-03T08:32:21;97592.81;;;27.50;44.21
62025;BME280;47978;49.118;12.146;2022-08-03T08:34:50;97595.13;;;27.66;44.59
62025;BME280;47978;49.118;12.146;2022-08-03T08:37:16;97577.22;;;27.73;43.80
62025;BME280;47978;49.118;12.146;2022-08-03T08:39:43;97589.72;;;27.86;44.67
62025;BME280;47978;49.118;12.146;2022-08-03T08:42:09;97577.63;;;28.23;43.47
62025;BME280;47978;49.118;12.146;2022-08-03T08:44:36;97577.56;;;28.27;42.44
62025;BME280;47978;49.118;12.146;2022-08-03T08:47:03;97580.47;;;28.61;41.86
62025;BME280;47978;49.118;12.146;2022-08-03T08:49:31;97581.19;;;28.69;41.96
62025;BME280;47978;49.118;12.146;2022-08-03T08:51:59;97585.13;;;28.44;41.66
62025;BME280;47978;49.118;12.146;2022-08-03T08:54:28;97575.03;;;28.36;43.38
62025;BME280;47978;49.118;12.146;2022-08-03T08:57:01;97579.38;;;28.48;41.92
62025;BME280;47978;49.118;12.146;2022-08-03T08:59:28;97574.78;;;28.61;42.30
62025;BME280;47978;49.118;12.146;2022-08-03T09:02:15;97578.75;;;28.30;43.01
62025;BME280;47978;49.118;12.146;2022-08-03T09:04:42;97580.13;;;28.56;41.66
62025;BME280;47978;49.118;12.146;2022-08-03T09:07:10;97574.69;;;28.68;41.71
62025;BME280;47978;49.118;12.146;2022-08-03T09:09:46;97581.28;;;28.62;41.86
62025;BME280;47978;49.118;12.146;2022-08-03T09:12:36;97571.19;;;28.54;42.99
62025;BME280;47978;49.118;12.146;2022-08-03T09:15:18;97570.84;;;28.48;42.75
62025;BME280;47978;49.118;12.146;2022-08-03T09:17:46;97575.22;;;28.56;42.56
62025;BME280;47978;49.118;12.146;2022-08-03T09:20:17;97572.84;;;28.85;41.90
62025;BME280;47978;49.118;12.146;2022-08-03T09:23:03;97568.16;;;29.02;40.69
62025;BME280;47978;49.118;12.146;2022-08-03T09:25:57;97570.25;;;28.98;41.17
62025;BME280;47978;49.118;12.146;2022-08-03T09:28:32;97573.50;;;28.97;43.21
62025;BME280;47978;49.118;12.146;2022-08-03T09:31:19;97566.22;;;29.26;39.19
62025;BME280;47978;49.118;12.146;2022-08-03T09:33:46;97565.75;;;29.01;40.35
62025;BME280;47978;49.118;12.146;2022-08-03T09:36:38;97564.81;;;28.77;41.48
62025;BME280;47978;49.118;12.146;2022-08-03T09:39:07;97565.75;;;28.97;41.02
62025;BME280;47978;49.118;12.146;2022-08-03T09:41:34;97562.88;;;29.31;38.88
62025;BME280;47978;49.118;12.146;2022-08-03T09:44:00;97566.09;;;29.33;38.84
62025;BME280;47978;49.118;12.146;2022-08-03T09:46:27;97559.50;;;29.40;37.61
62025;BME280;47978;49.118;12.146;2022-08-03T09:49:08;97555.41;;;29.41;35.65
62025;BME280;47978;49.118;12.146;2022-08-03T09:51:37;97554.66;;;29.37;36.29
62025;BME280;47978;49.118;12.146;2022-08-03T09:54:26;97557.56;;;29.33;36.23
62025;BME280;47978;49.118;12.146;2022-08-03T09:56:53;97572.56;;;29.38;36.65
62025;BME280;47978;49.118;12.146;2022-08-03T09:59:24;97561.50;;;29.43;35.48
62025;BME280;47978;49.118;12.146;2022-08-03T10:01:51;97551.31;;;29.42;36.24
62025;BME280;47978;49.118;12.146;2022-08-03T10:04:18;97555.28;;;29.48;33.89
62025;BME280;47978;49.118;12.146;2022-08-03T10:07:00;97544.94;;;29.34;35.35
62025;BME280;47978;49.118;12.146;2022-08-03T10:09:29;97546.19;;;29.57;36.20
62025;BME280;47978;49.118;12.146;2022-08-03T10:11:56;97546.97;;;29.61;34.85
62025;BME280;47978;49.118;12.146;2022-08-03T10:14:23;97548.09;;;29.67;33.20
62025;BME280;47978;49.118;12.146;2022-08-03T10:16:49;97544.09;;;29.61;31.51
62025;BME280;47978;49.118;12.146;2022-08-03T10:19:16;97540.28;;;29.71;31.60
62025;BME280;47978;49.118;12.146;2022-08-03T10:21:47;97536.09;;;29.52;34.74
62025;BME280;47978;49.118;12.146;2022-08-03T10:24:16;97536.34;;;29.62;35.63
62025;BME280;47978;49.118;12.146;2022-08-03T10:26:47;97526.25;;;29.57;34.85
62025;BME280;47978;49.118;12.146;2022-08-03T10:29:20;97529.09;;;29.57;34.45
62025;BME280;47978;49.118;12.146;2022-08-03T10:31:47;97530.97;;;29.44;34.21
62025;BME280;47978;49.118;12.146;2022-08-03T10:34:25;97522.09;;;29.38;33.80
62025;BME280;47978;49.118;12.146;2022-08-03T10:36:55;97524.25;;;29.00;34.29
62025;BME280;47978;49.118;12.146;2022-08-03T10:39:24;97518.22;;;29.25;34.34
62025;BME280;47978;49.118;12.146;2022-08-03T10:41:54;97525.41;;;29.60;36.36
62025;BME280;47978;49.118;12.146;2022-08-03T10:44:23;97527.81;;;29.62;34.89
62025;BME280;47978;49.118;12.146;2022-08-03T10:46:51;97517.53;;;29.68;35.63
62025;BME280;47978;49.118;12.146;2022-08-03T10:49:19;97514.28;;;29.69;33.83
62025;BME280;47978;49.118;12.146;2022-08-03T10:52:01;97521.88;;;29.76;34.63
62025;BME280;47978;49.118;12.146;2022-08-03T10:54:40;97518.56;;;29.81;35.14
62025;BME280;47978;49.118;12.146;2022-08-03T10:57:41;97515.63;;;29.85;33.81
62025;BME280;47978;49.118;12.146;2022-08-03T11:00:09;97523.50;;;29.77;34.43
62025;BME280;47978;49.118;12.146;2022-08-03T11:03:05;97506.19;;;29.88;33.19
62025;BME280;47978;49.118;12.146;2022-08-03T11:05:33;97513.25;;;29.79;34.28
62025;BME280;47978;49.118;12.146;2022-08-03T11:08:21;97502.25;;;29.81;33.30
62025;BME280;47978;49.118;12.146;2022-08-03T11:10:49;97493.91;;;29.91;33.44
62025;BME280;47978;49.118;12.146;2022-08-03T11:13:19;97493.50;;;29.92;32.30
62025;BME280;47978;49.118;12.146;2022-08-03T11:15:48;97503.47;;;30.04;33.30
62025;BME280;47978;49.118;12.146;2022-08-03T11:18:15;97509.88;;;30.08;32.74
62025;BME280;47978;49.118;12.146;2022-08-03T11:20:44;97506.25;;;30.08;33.00
62025;BME280;47978;49.118;12.146;2022-08-03T11:23:11;97501.22;;;30.15;32.66
62025;BME280;47978;49.118;12.146;2022-08-03T11:26:13;97495.28;;;30.06;30.12
62025;BME280;47978;49.118;12.146;2022-08-03T11:28:43;97496.31;;;30.16;31.68
62025;BME280;47978;49.118;12.146;2022-08-03T11:31:42;97493.91;;;30.14;33.06
62025;BME280;47978;49.118;12.146;2022-08-03T11:34:17;97494.16;;;30.23;30.94
62025;BME280;47978;49.118;12.146;2022-08-03T11:37:18;97484.81;;;30.19;31.50
62025;BME280;47978;49.118;12.146;2022-08-03T11:39:48;97491.31;;;30.23;30.55
62025;BME280;47978;49.118;12.146;2022-08-03T11:42:38;97489.97;;;30.28;30.59
62025;BME280;47978;49.118;12.146;2022-08-03T11:45:07;97488.75;;;30.29;31.43
62025;BME280;47978;49.118;12.146;2022-08-03T11:47:36;97474.47;;;30.29;32.80
62025;BME280;47978;49.118;12.146;2022-08-03T11:50:17;97490.13;;;30.41;33.64
62025;BME280;47978;49.118;12.146;2022-08-03T11:52:43;97493.19;;;30.50;33.53
62025;BME280;47978;49.118;12.146;2022-08-03T11:55:13;97489.81;;;30.15;33.07
62025;BME280;47978;49.118;12.146;2022-08-03T11:57:39;97487.91;;;30.09;33.21
62025;BME280;47978;49.118;12.146;2022-08-03T12:00:29;97479.13;;;30.19;32.93
62025;BME280;47978;49.118;12.146;2022-08-03T12:02:58;97483.91;;;30.26;32.83
62025;BME280;47978;49.118;12.146;2022-08-03T12:05:35;97483.25;;;30.38;32.29
62025;BME280;47978;49.118;12.146;2022-08-03T12:08:03;97484.34;;;30.44;32.68
62025;BME280;47978;49.118;12.146;2022-08-03T12:10:32;97474.25;;;30.60;31.23
62025;BME280;47978;49.118;12.146;2022-08-03T12:13:00;97473.28;;;30.66;31.92
62025;BME280;47978;49.118;12.146;2022-08-03T12:15:30;97472.31;;;30.93;32.54
62025;BME280;47978;49.118;12.146;2022-08-03T12:17:58;97467.84;;;30.92;30.63
62025;BME280;47978;49.118;12.146;2022-08-03T12:20:26;97464.28;;;31.04;31.80
62025;BME280;47978;49.118;12.146;2022-08-03T12:23:02;97464.47;;;30.97;31.32
62025;BME280;47978;49.118;12.146;2022-08-03T12:25:30;97465.50;;;30.87;31.78
62025;BME280;47978;49.118;12.146;2022-08-03T12:28:08;97456.56;;;30.85;31.88
62025;BME280;47978;49.118;12.146;2022-08-03T12:31:00;97461.06;;;31.02;30.67
62025;BME280;47978;49.118;12.146;2022-08-03T12:33:27;97455.72;;;31.04;30.78
62025;BME280;47978;49.118;12.146;2022-08-03T12:36:03;97453.84;;;30.98;31.06
62025;BME280;47978;49.118;12.146;2022-08-03T12:38:30;97445.72;;;30.96;30.26
62025;BME280;47978;49.118;12.146;2022-08-03T12:41:05;97452.06;;;31.04;32.23
62025;BME280;47978;49.118;12.146;2022-08-03T12:43:31;97449.50;;;31.09;30.25
62025;BME280;47978;49.118;12.146;2022-08-03T12:46:13;97448.06;;;31.18;29.50
62025;BME280;47978;49.118;12.146;2022-08-03T12:49:03;97445.47;;;31.23;28.81
62025;BME280;47978;49.118;12.146;2022-08-03T12:51:32;97447.44;;;31.26;27.88
62025;BME280;47978;49.118;12.146;2022-08-03T12:53:59;97442.72;;;31.36;28.16
62025;BME280;47978;49.118;12.146;2022-08-03T12:56:26;97445.03;;;31.25;28.92
62025;BME280;47978;49.118;12.146;2022-08-03T12:58:52;97440.13;;;31.25;29.89
62025;BME280;47978;49.118;12.146;2022-08-03T13:01:20;97438.25;;;31.35;29.50
62025;BME280;47978;49.118;12.146;2022-08-03T13:03:49;97431.31;;;31.36;29.14
62025;BME280;47978;49.118;12.146;2022-08-03T13:06:19;97428.44;;;31.36;28.92
62025;BME280;47978;49.118;12.146;2022-08-03T13:08:47;97430.06;;;31.37;27.51
62025;BME280;47978;49.118;12.146;2022-08-03T13:11:18;97434.88;;;31.40;27.92